NOZ1938 ENBR-LDSP
Flight info
| Callsign | NOZ1938 |
|---|---|
| Flight time | 2h 49m |
| Altitude | 35000 |
| Route | TUXIL DCT ZOL DCT ATTUS DCT AKOSI DCT SIMBA DCT NUPSO |
| Aircraft | B738/M-SDE2E3FGHIRWXY/LB1 |
Departure
| Time | 2026-05-07 14:29 |
|---|---|
| Airport | Bergen Airport, Flesland (ENBR) |
Arrival
| Time | 2026-05-07 17:19 |
|---|---|
| Airport | Split Saint Jerome Airport (LDSP) |
| Time | Latitude | Longitude | Altitude | Speed | Heading |
|---|---|---|---|---|---|
| 2026-05-07 13:56 | 60.28740 | 5.22904 | 172 ft | 0 kts | 80° |
| 2026-05-07 14:17 | 60.28737 | 5.22865 | 172 ft | 4 kts | 80° |
| 2026-05-07 14:17 | 60.28732 | 5.22811 | 172 ft | 4 kts | 80° |
| 2026-05-07 14:17 | 60.28731 | 5.22797 | 172 ft | 0 kts | 80° |
| 2026-05-07 14:20 | 60.28730 | 5.22800 | 172 ft | 1 kts | 97° |
| 2026-05-07 14:20 | 60.28724 | 5.22803 | 172 ft | 1 kts | 168° |
| 2026-05-07 14:21 | 60.28722 | 5.22758 | 171 ft | 6 kts | 274° |
| 2026-05-07 14:21 | 60.28717 | 5.22631 | 168 ft | 12 kts | 262° |
| 2026-05-07 14:21 | 60.28691 | 5.22452 | 164 ft | 14 kts | 250° |
| 2026-05-07 14:21 | 60.28751 | 5.22337 | 162 ft | 14 kts | 350° |
| 2026-05-07 14:22 | 60.28845 | 5.22304 | 161 ft | 13 kts | 350° |
| 2026-05-07 14:22 | 60.28946 | 5.22270 | 161 ft | 17 kts | 351° |
| 2026-05-07 14:22 | 60.29073 | 5.22228 | 161 ft | 19 kts | 350° |
| 2026-05-07 14:22 | 60.29205 | 5.22183 | 162 ft | 19 kts | 350° |
| 2026-05-07 14:23 | 60.29332 | 5.22142 | 160 ft | 18 kts | 351° |
| 2026-05-07 14:23 | 60.29455 | 5.22100 | 155 ft | 18 kts | 351° |
| 2026-05-07 14:23 | 60.29576 | 5.22059 | 150 ft | 19 kts | 350° |
| 2026-05-07 14:23 | 60.29707 | 5.22015 | 147 ft | 19 kts | 351° |
| 2026-05-07 14:24 | 60.29834 | 5.21972 | 149 ft | 18 kts | 350° |
| 2026-05-07 14:24 | 60.29958 | 5.21931 | 154 ft | 18 kts | 351° |
| 2026-05-07 14:24 | 60.30078 | 5.21891 | 160 ft | 17 kts | 351° |
| 2026-05-07 14:24 | 60.30194 | 5.21851 | 163 ft | 17 kts | 351° |
| 2026-05-07 14:25 | 60.30305 | 5.21814 | 167 ft | 16 kts | 351° |
| 2026-05-07 14:25 | 60.30412 | 5.21779 | 172 ft | 15 kts | 351° |
| 2026-05-07 14:25 | 60.30515 | 5.21745 | 176 ft | 15 kts | 351° |
| 2026-05-07 14:25 | 60.30613 | 5.21712 | 179 ft | 14 kts | 350° |
| 2026-05-07 14:26 | 60.30662 | 5.21619 | 181 ft | 5 kts | 276° |
| 2026-05-07 14:26 | 60.30662 | 5.21616 | 181 ft | 0 kts | 274° |
| 2026-05-07 14:27 | 60.30663 | 5.21613 | 181 ft | 2 kts | 274° |
| 2026-05-07 14:27 | 60.30659 | 5.21525 | 182 ft | 10 kts | 262° |
| 2026-05-07 14:27 | 60.30628 | 5.21406 | 183 ft | 10 kts | 210° |
| 2026-05-07 14:28 | 60.30597 | 5.21398 | 182 ft | 0 kts | 176° |
| 2026-05-07 14:28 | 60.30596 | 5.21398 | 181 ft | 0 kts | 175° |
| 2026-05-07 14:28 | 60.30594 | 5.21398 | 181 ft | 0 kts | 175° |
| 2026-05-07 14:28 | 60.30578 | 5.21401 | 180 ft | 5 kts | 174° |
| 2026-05-07 14:29 | 60.30430 | 5.21450 | 171 ft | 56 kts | 170° |
| 2026-05-07 14:29 | 60.29793 | 5.21669 | 154 ft | 127 kts | 170° |
| 2026-05-07 14:29 | 60.28761 | 5.22013 | 316 ft | 167 kts | 170° |
| 2026-05-07 14:29 | 60.27598 | 5.22465 | 1050 ft | 168 kts | 171° |
| 2026-05-07 14:30 | 60.26458 | 5.22852 | 1930 ft | 167 kts | 173° |
| 2026-05-07 14:30 | 60.25232 | 5.23194 | 2309 ft | 192 kts | 173° |
| 2026-05-07 14:30 | 60.23849 | 5.23613 | 2519 ft | 215 kts | 172° |
| 2026-05-07 14:30 | 60.22307 | 5.24101 | 2823 ft | 232 kts | 171° |
| 2026-05-07 14:31 | 60.20637 | 5.24650 | 3108 ft | 251 kts | 171° |
| 2026-05-07 14:31 | 60.18885 | 5.25232 | 3734 ft | 258 kts | 171° |
| 2026-05-07 14:31 | 60.17111 | 5.25830 | 4562 ft | 259 kts | 170° |
| 2026-05-07 14:31 | 60.15331 | 5.26439 | 5323 ft | 261 kts | 170° |
| 2026-05-07 14:32 | 60.13528 | 5.27055 | 6090 ft | 264 kts | 170° |
| 2026-05-07 14:32 | 60.11711 | 5.27679 | 6847 ft | 267 kts | 170° |
| 2026-05-07 14:32 | 60.09894 | 5.28295 | 7576 ft | 269 kts | 170° |
| 2026-05-07 14:32 | 60.08034 | 5.28881 | 8291 ft | 273 kts | 172° |
| 2026-05-07 14:33 | 60.06140 | 5.29391 | 8988 ft | 276 kts | 173° |
| 2026-05-07 14:33 | 60.04232 | 5.29892 | 9693 ft | 278 kts | 173° |
| 2026-05-07 14:33 | 60.02302 | 5.30396 | 10363 ft | 282 kts | 173° |
| 2026-05-07 14:33 | 60.00288 | 5.30936 | 10588 ft | 303 kts | 173° |
| 2026-05-07 14:34 | 59.98125 | 5.31498 | 10785 ft | 323 kts | 174° |
| 2026-05-07 14:34 | 59.95861 | 5.32092 | 11249 ft | 332 kts | 174° |
| 2026-05-07 14:34 | 59.93557 | 5.32704 | 11907 ft | 336 kts | 174° |
| 2026-05-07 14:34 | 59.91264 | 5.33317 | 12605 ft | 338 kts | 174° |
| 2026-05-07 14:35 | 59.88925 | 5.33943 | 13259 ft | 341 kts | 175° |
| 2026-05-07 14:35 | 59.86551 | 5.34567 | 13890 ft | 347 kts | 175° |
| 2026-05-07 14:35 | 59.84149 | 5.35206 | 14575 ft | 350 kts | 175° |
| 2026-05-07 14:35 | 59.81724 | 5.35850 | 15245 ft | 354 kts | 175° |
| 2026-05-07 14:36 | 59.79283 | 5.36484 | 15888 ft | 357 kts | 177° |
| 2026-05-07 14:36 | 59.76794 | 5.36946 | 16538 ft | 360 kts | 179° |
| 2026-05-07 14:36 | 59.74288 | 5.37317 | 17163 ft | 364 kts | 180° |
| 2026-05-07 14:36 | 59.71746 | 5.37690 | 17757 ft | 368 kts | 180° |
| 2026-05-07 14:37 | 59.69184 | 5.38091 | 18349 ft | 372 kts | 180° |
| 2026-05-07 14:37 | 59.64019 | 5.38947 | 19494 ft | 379 kts | 179° |
| 2026-05-07 14:37 | 59.61379 | 5.39550 | 20022 ft | 384 kts | 178° |
| 2026-05-07 14:38 | 59.58717 | 5.40252 | 20580 ft | 388 kts | 177° |
| 2026-05-07 14:38 | 59.56030 | 5.40977 | 21120 ft | 391 kts | 177° |
| 2026-05-07 14:38 | 59.53317 | 5.41696 | 21622 ft | 395 kts | 178° |
| 2026-05-07 14:38 | 59.50579 | 5.42404 | 22100 ft | 399 kts | 178° |
| 2026-05-07 14:39 | 59.47852 | 5.43098 | 22581 ft | 402 kts | 178° |
| 2026-05-07 14:39 | 59.45071 | 5.43800 | 23057 ft | 405 kts | 178° |
| 2026-05-07 14:39 | 59.42264 | 5.44505 | 23512 ft | 408 kts | 178° |
| 2026-05-07 14:39 | 59.39436 | 5.45234 | 23941 ft | 412 kts | 177° |
| 2026-05-07 14:40 | 59.36588 | 5.46168 | 24361 ft | 417 kts | 175° |
| 2026-05-07 14:40 | 59.33721 | 5.47230 | 24801 ft | 420 kts | 175° |
| 2026-05-07 14:40 | 59.30842 | 5.48330 | 25226 ft | 423 kts | 175° |
| 2026-05-07 14:40 | 59.27944 | 5.49431 | 25613 ft | 426 kts | 175° |
| 2026-05-07 14:41 | 59.25024 | 5.50523 | 25979 ft | 429 kts | 175° |
| 2026-05-07 14:41 | 59.22079 | 5.51607 | 26360 ft | 432 kts | 175° |
| 2026-05-07 14:41 | 59.19157 | 5.52671 | 26737 ft | 434 kts | 175° |
| 2026-05-07 14:41 | 59.16184 | 5.53746 | 27092 ft | 436 kts | 175° |
| 2026-05-07 14:42 | 59.13192 | 5.54824 | 27444 ft | 438 kts | 175° |
| 2026-05-07 14:42 | 59.10189 | 5.55902 | 27782 ft | 441 kts | 175° |
| 2026-05-07 14:42 | 59.07167 | 5.56984 | 28105 ft | 443 kts | 175° |
| 2026-05-07 14:42 | 59.04129 | 5.58071 | 28413 ft | 445 kts | 175° |
| 2026-05-07 14:43 | 59.01072 | 5.59164 | 28719 ft | 448 kts | 175° |
| 2026-05-07 14:43 | 58.98001 | 5.60262 | 29014 ft | 450 kts | 175° |
| 2026-05-07 14:43 | 58.94914 | 5.61364 | 29331 ft | 452 kts | 175° |
| 2026-05-07 14:43 | 58.91853 | 5.62453 | 29615 ft | 454 kts | 175° |
| 2026-05-07 14:44 | 58.88744 | 5.63588 | 29897 ft | 457 kts | 173° |
| 2026-05-07 14:44 | 58.85674 | 5.65376 | 30195 ft | 466 kts | 162° |
| 2026-05-07 14:44 | 58.82718 | 5.67946 | 30604 ft | 466 kts | 160° |
| 2026-05-07 14:44 | 58.79793 | 5.70600 | 31024 ft | 464 kts | 160° |
| 2026-05-07 14:45 | 58.76869 | 5.73266 | 31346 ft | 464 kts | 160° |
| 2026-05-07 14:45 | 58.73943 | 5.75915 | 31616 ft | 465 kts | 160° |
| 2026-05-07 14:45 | 58.71010 | 5.78542 | 31956 ft | 465 kts | 160° |
| 2026-05-07 14:45 | 58.68117 | 5.81111 | 32322 ft | 463 kts | 160° |
| 2026-05-07 14:46 | 58.65196 | 5.83689 | 32677 ft | 462 kts | 160° |
| 2026-05-07 14:46 | 58.62274 | 5.86252 | 32970 ft | 462 kts | 160° |
| 2026-05-07 14:46 | 58.59351 | 5.88808 | 33227 ft | 462 kts | 160° |
| 2026-05-07 14:46 | 58.56420 | 5.91362 | 33482 ft | 463 kts | 160° |
| 2026-05-07 14:47 | 58.53495 | 5.93907 | 33807 ft | 461 kts | 160° |
| 2026-05-07 14:47 | 58.50578 | 5.96442 | 34140 ft | 460 kts | 160° |
| 2026-05-07 14:47 | 58.47668 | 5.98967 | 34425 ft | 459 kts | 160° |
| 2026-05-07 14:47 | 58.44756 | 6.01489 | 34690 ft | 459 kts | 160° |
| 2026-05-07 14:48 | 58.41856 | 6.03997 | 34958 ft | 458 kts | 160° |
| 2026-05-07 14:48 | 58.38990 | 6.06471 | 35149 ft | 459 kts | 160° |
| 2026-05-07 14:48 | 58.33128 | 6.11515 | 35125 ft | 462 kts | 160° |
| 2026-05-07 14:49 | 58.27306 | 6.16513 | 35117 ft | 455 kts | 160° |
| 2026-05-07 14:49 | 58.21537 | 6.21447 | 35130 ft | 454 kts | 160° |
| 2026-05-07 14:50 | 58.15813 | 6.26319 | 35131 ft | 454 kts | 160° |
| 2026-05-07 14:50 | 58.10054 | 6.31204 | 35127 ft | 454 kts | 160° |
| 2026-05-07 14:51 | 58.04284 | 6.36084 | 35130 ft | 454 kts | 160° |
| 2026-05-07 14:51 | 57.98506 | 6.40953 | 35131 ft | 455 kts | 160° |
| 2026-05-07 14:52 | 57.92755 | 6.45780 | 35139 ft | 456 kts | 160° |
| 2026-05-07 14:52 | 57.86958 | 6.50630 | 35130 ft | 456 kts | 160° |
| 2026-05-07 14:53 | 57.81158 | 6.55467 | 35133 ft | 457 kts | 159° |
| 2026-05-07 14:53 | 57.75349 | 6.60295 | 35128 ft | 456 kts | 160° |
| 2026-05-07 14:54 | 57.69543 | 6.65102 | 35132 ft | 456 kts | 159° |
| 2026-05-07 14:54 | 57.63773 | 6.69860 | 35121 ft | 456 kts | 159° |
| 2026-05-07 14:55 | 57.57963 | 6.74636 | 35123 ft | 456 kts | 159° |
| 2026-05-07 14:55 | 57.52163 | 6.79387 | 35128 ft | 455 kts | 159° |
| 2026-05-07 14:56 | 57.46366 | 6.84119 | 35127 ft | 455 kts | 159° |
| 2026-05-07 14:56 | 57.40615 | 6.88798 | 35132 ft | 454 kts | 159° |
| 2026-05-07 14:57 | 57.34825 | 6.93492 | 35133 ft | 454 kts | 159° |
| 2026-05-07 14:57 | 57.29038 | 6.98167 | 35124 ft | 454 kts | 159° |
| 2026-05-07 14:58 | 57.23256 | 7.02823 | 35128 ft | 453 kts | 159° |
| 2026-05-07 14:58 | 57.17516 | 7.07427 | 35128 ft | 452 kts | 159° |
| 2026-05-07 14:59 | 57.11749 | 7.12039 | 35130 ft | 452 kts | 159° |
| 2026-05-07 14:59 | 57.05976 | 7.16641 | 35125 ft | 452 kts | 159° |
| 2026-05-07 15:00 | 57.00206 | 7.21224 | 35120 ft | 452 kts | 159° |
| 2026-05-07 15:00 | 56.94428 | 7.25798 | 35119 ft | 452 kts | 159° |
| 2026-05-07 15:01 | 56.88692 | 7.30322 | 35123 ft | 452 kts | 159° |
| 2026-05-07 15:01 | 56.82905 | 7.34873 | 35121 ft | 452 kts | 159° |
| 2026-05-07 15:02 | 56.77122 | 7.39404 | 35119 ft | 452 kts | 159° |
| 2026-05-07 15:02 | 56.71340 | 7.43919 | 35121 ft | 452 kts | 159° |
| 2026-05-07 15:03 | 56.65599 | 7.48389 | 35121 ft | 452 kts | 159° |
| 2026-05-07 15:03 | 56.59826 | 7.52868 | 35115 ft | 451 kts | 159° |
| 2026-05-07 15:04 | 56.54050 | 7.57333 | 35109 ft | 451 kts | 158° |
| 2026-05-07 15:04 | 56.48281 | 7.61778 | 35111 ft | 450 kts | 158° |
| 2026-05-07 15:05 | 56.42517 | 7.66206 | 35111 ft | 450 kts | 158° |
| 2026-05-07 15:05 | 56.36796 | 7.70587 | 35111 ft | 449 kts | 158° |
| 2026-05-07 15:06 | 56.31058 | 7.74869 | 35110 ft | 448 kts | 158° |
| 2026-05-07 15:06 | 56.25330 | 7.79262 | 35111 ft | 447 kts | 157° |
| 2026-05-07 15:07 | 56.19606 | 7.83644 | 35106 ft | 447 kts | 158° |
| 2026-05-07 15:07 | 56.13924 | 7.87952 | 35099 ft | 446 kts | 158° |
| 2026-05-07 15:08 | 56.08210 | 7.92256 | 35102 ft | 445 kts | 158° |
| 2026-05-07 15:08 | 56.02501 | 7.96543 | 35104 ft | 445 kts | 158° |
| 2026-05-07 15:09 | 55.96761 | 8.00839 | 35102 ft | 444 kts | 158° |
| 2026-05-07 15:09 | 55.91092 | 8.05067 | 35105 ft | 444 kts | 158° |
| 2026-05-07 15:10 | 55.85391 | 8.09308 | 35099 ft | 444 kts | 158° |
| 2026-05-07 15:10 | 55.79693 | 8.13530 | 35100 ft | 444 kts | 158° |
| 2026-05-07 15:11 | 55.73990 | 8.17744 | 35103 ft | 443 kts | 158° |
| 2026-05-07 15:11 | 55.68327 | 8.21915 | 35106 ft | 444 kts | 158° |
| 2026-05-07 15:12 | 55.62621 | 8.26103 | 35101 ft | 444 kts | 158° |
| 2026-05-07 15:12 | 55.56908 | 8.30285 | 35101 ft | 444 kts | 158° |
| 2026-05-07 15:13 | 55.51191 | 8.34456 | 35099 ft | 445 kts | 158° |
| 2026-05-07 15:13 | 55.45508 | 8.38590 | 35101 ft | 445 kts | 158° |
| 2026-05-07 15:14 | 55.39784 | 8.42740 | 35102 ft | 445 kts | 158° |
| 2026-05-07 15:14 | 55.34053 | 8.46880 | 35104 ft | 445 kts | 158° |
| 2026-05-07 15:15 | 55.28330 | 8.51004 | 35104 ft | 445 kts | 158° |
| 2026-05-07 15:15 | 55.22638 | 8.55093 | 35102 ft | 445 kts | 158° |
| 2026-05-07 15:16 | 55.16912 | 8.59194 | 35101 ft | 445 kts | 158° |
| 2026-05-07 15:16 | 55.11192 | 8.63278 | 35102 ft | 444 kts | 158° |
| 2026-05-07 15:17 | 55.05466 | 8.67351 | 35106 ft | 444 kts | 158° |
| 2026-05-07 15:17 | 54.99743 | 8.71411 | 35102 ft | 444 kts | 158° |
| 2026-05-07 15:18 | 54.94063 | 8.75432 | 35103 ft | 444 kts | 158° |
| 2026-05-07 15:18 | 54.88348 | 8.79469 | 35101 ft | 443 kts | 158° |
| 2026-05-07 15:19 | 54.82658 | 8.83562 | 35102 ft | 442 kts | 157° |
| 2026-05-07 15:19 | 54.76978 | 8.87662 | 35103 ft | 442 kts | 157° |
| 2026-05-07 15:20 | 54.71334 | 8.91717 | 35100 ft | 442 kts | 157° |
| 2026-05-07 15:20 | 54.65651 | 8.95781 | 35101 ft | 441 kts | 157° |
| 2026-05-07 15:21 | 54.59979 | 8.99824 | 35104 ft | 441 kts | 158° |
| 2026-05-07 15:21 | 54.54314 | 9.03849 | 35099 ft | 441 kts | 158° |
| 2026-05-07 15:22 | 54.48645 | 9.07864 | 35102 ft | 440 kts | 158° |
| 2026-05-07 15:22 | 54.43021 | 9.11834 | 35102 ft | 440 kts | 158° |
| 2026-05-07 15:23 | 54.37360 | 9.15818 | 35098 ft | 440 kts | 158° |
| 2026-05-07 15:23 | 54.31696 | 9.19794 | 35080 ft | 440 kts | 158° |
| 2026-05-07 15:24 | 54.26029 | 9.23762 | 35071 ft | 440 kts | 158° |
| 2026-05-07 15:24 | 54.20363 | 9.27716 | 35072 ft | 440 kts | 158° |
| 2026-05-07 15:25 | 54.14729 | 9.31637 | 35077 ft | 440 kts | 158° |
| 2026-05-07 15:25 | 54.09088 | 9.35551 | 35077 ft | 440 kts | 158° |
| 2026-05-07 15:26 | 54.03428 | 9.39467 | 35076 ft | 439 kts | 158° |
| 2026-05-07 15:26 | 53.97774 | 9.43365 | 35078 ft | 439 kts | 158° |
| 2026-05-07 15:27 | 53.92119 | 9.47256 | 35070 ft | 438 kts | 158° |
| 2026-05-07 15:27 | 53.86508 | 9.51105 | 35074 ft | 438 kts | 158° |
| 2026-05-07 15:28 | 53.80860 | 9.54965 | 35072 ft | 437 kts | 158° |
| 2026-05-07 15:28 | 53.75218 | 9.58807 | 35087 ft | 437 kts | 158° |
| 2026-05-07 15:29 | 53.69584 | 9.62635 | 35081 ft | 437 kts | 158° |
| 2026-05-07 15:29 | 53.63940 | 9.66462 | 35083 ft | 437 kts | 158° |
| 2026-05-07 15:30 | 53.58300 | 9.70274 | 35073 ft | 437 kts | 158° |
| 2026-05-07 15:30 | 53.52654 | 9.74079 | 35070 ft | 437 kts | 158° |
| 2026-05-07 15:31 | 53.47051 | 9.77842 | 35080 ft | 437 kts | 158° |
| 2026-05-07 15:31 | 53.41402 | 9.81624 | 35071 ft | 437 kts | 158° |
| 2026-05-07 15:32 | 53.35751 | 9.85399 | 35071 ft | 437 kts | 158° |
| 2026-05-07 15:32 | 53.30100 | 9.89163 | 35073 ft | 438 kts | 158° |
| 2026-05-07 15:33 | 53.24438 | 9.92923 | 35068 ft | 438 kts | 158° |
| 2026-05-07 15:33 | 53.18812 | 9.96652 | 35077 ft | 438 kts | 159° |
| 2026-05-07 15:34 | 53.13144 | 10.00397 | 35079 ft | 438 kts | 159° |
| 2026-05-07 15:34 | 53.07498 | 10.04115 | 35078 ft | 438 kts | 159° |
| 2026-05-07 15:35 | 53.01823 | 10.07842 | 35070 ft | 438 kts | 159° |
| 2026-05-07 15:35 | 52.96158 | 10.11552 | 35081 ft | 437 kts | 159° |
| 2026-05-07 15:36 | 52.90495 | 10.15249 | 35072 ft | 437 kts | 159° |
| 2026-05-07 15:36 | 52.84872 | 10.18906 | 35071 ft | 437 kts | 159° |
| 2026-05-07 15:37 | 52.79216 | 10.22580 | 35071 ft | 437 kts | 159° |
| 2026-05-07 15:37 | 52.73564 | 10.26242 | 35073 ft | 436 kts | 159° |
| 2026-05-07 15:38 | 52.67913 | 10.29892 | 35076 ft | 436 kts | 159° |
| 2026-05-07 15:38 | 52.62267 | 10.33528 | 35073 ft | 436 kts | 159° |
| 2026-05-07 15:39 | 52.56657 | 10.37131 | 35075 ft | 436 kts | 159° |
| 2026-05-07 15:39 | 52.50981 | 10.40765 | 35080 ft | 435 kts | 159° |
| 2026-05-07 15:40 | 52.45374 | 10.44345 | 35084 ft | 435 kts | 159° |
| 2026-05-07 15:40 | 52.39734 | 10.47937 | 35071 ft | 435 kts | 159° |
| 2026-05-07 15:41 | 52.34079 | 10.51529 | 35070 ft | 436 kts | 159° |
| 2026-05-07 15:41 | 52.28427 | 10.55112 | 35071 ft | 436 kts | 159° |
| 2026-05-07 15:42 | 52.22803 | 10.58666 | 35074 ft | 436 kts | 159° |
| 2026-05-07 15:42 | 52.17147 | 10.62227 | 35079 ft | 436 kts | 159° |
| 2026-05-07 15:43 | 52.11517 | 10.65762 | 35076 ft | 436 kts | 160° |
| 2026-05-07 15:43 | 52.05904 | 10.69278 | 35072 ft | 437 kts | 160° |
| 2026-05-07 15:44 | 52.00270 | 10.72798 | 35072 ft | 437 kts | 160° |
| 2026-05-07 15:44 | 51.94590 | 10.76335 | 35079 ft | 437 kts | 160° |
| 2026-05-07 15:45 | 51.88916 | 10.79862 | 35070 ft | 437 kts | 160° |
| 2026-05-07 15:45 | 51.83242 | 10.83378 | 35077 ft | 436 kts | 160° |
| 2026-05-07 15:46 | 51.74790 | 10.88601 | 35074 ft | 435 kts | 160° |
| 2026-05-07 15:47 | 51.69136 | 10.92083 | 35073 ft | 435 kts | 160° |
| 2026-05-07 15:47 | 51.64433 | 10.94970 | 35071 ft | 435 kts | 160° |
| 2026-05-07 15:48 | 51.58782 | 10.98431 | 35070 ft | 435 kts | 160° |
| 2026-05-07 15:48 | 51.52209 | 11.02445 | 35064 ft | 435 kts | 160° |
| 2026-05-07 15:49 | 51.46558 | 11.05886 | 35061 ft | 434 kts | 160° |
| 2026-05-07 15:49 | 51.41865 | 11.08739 | 35065 ft | 434 kts | 160° |
| 2026-05-07 15:50 | 51.36218 | 11.12164 | 35065 ft | 434 kts | 160° |
| 2026-05-07 15:50 | 51.30574 | 11.15575 | 35053 ft | 434 kts | 160° |
| 2026-05-07 15:51 | 51.24969 | 11.18954 | 35054 ft | 433 kts | 160° |
| 2026-05-07 15:51 | 51.19333 | 11.22341 | 35053 ft | 433 kts | 160° |
| 2026-05-07 15:52 | 51.13700 | 11.25720 | 35054 ft | 432 kts | 160° |
| 2026-05-07 15:52 | 51.08088 | 11.29077 | 35054 ft | 433 kts | 161° |
| 2026-05-07 15:53 | 51.02430 | 11.32453 | 35044 ft | 433 kts | 161° |
| 2026-05-07 15:53 | 50.96830 | 11.35786 | 35045 ft | 432 kts | 161° |
| 2026-05-07 15:54 | 50.91194 | 11.39131 | 35047 ft | 433 kts | 161° |
| 2026-05-07 15:54 | 50.85556 | 11.42470 | 35045 ft | 433 kts | 161° |
| 2026-05-07 15:55 | 50.79918 | 11.45801 | 35049 ft | 433 kts | 161° |
| 2026-05-07 15:55 | 50.74318 | 11.49101 | 35048 ft | 433 kts | 161° |
| 2026-05-07 15:56 | 50.68670 | 11.52419 | 35048 ft | 433 kts | 161° |
| 2026-05-07 15:56 | 50.63025 | 11.55725 | 35038 ft | 433 kts | 161° |
| 2026-05-07 15:57 | 50.57378 | 11.59025 | 35037 ft | 433 kts | 161° |
| 2026-05-07 15:57 | 50.51721 | 11.62323 | 35030 ft | 434 kts | 161° |
| 2026-05-07 15:58 | 50.46100 | 11.65592 | 35026 ft | 434 kts | 161° |
| 2026-05-07 15:58 | 50.40447 | 11.68872 | 35029 ft | 434 kts | 161° |
| 2026-05-07 15:59 | 50.34784 | 11.72147 | 35029 ft | 433 kts | 161° |
| 2026-05-07 15:59 | 50.29121 | 11.75415 | 35018 ft | 434 kts | 162° |
| 2026-05-07 16:00 | 50.23452 | 11.78678 | 35018 ft | 434 kts | 162° |
| 2026-05-07 16:00 | 50.17826 | 11.81908 | 35020 ft | 434 kts | 162° |
| 2026-05-07 16:01 | 50.12169 | 11.85148 | 35015 ft | 433 kts | 162° |
| 2026-05-07 16:01 | 50.06514 | 11.88379 | 35017 ft | 433 kts | 162° |
| 2026-05-07 16:02 | 50.00862 | 11.91598 | 35015 ft | 432 kts | 162° |
| 2026-05-07 16:02 | 49.95217 | 11.94805 | 35013 ft | 432 kts | 162° |
| 2026-05-07 16:03 | 49.89606 | 11.97990 | 35010 ft | 432 kts | 162° |
| 2026-05-07 16:03 | 49.83957 | 12.01188 | 35002 ft | 433 kts | 162° |
| 2026-05-07 16:04 | 49.78300 | 12.04378 | 35004 ft | 432 kts | 162° |
| 2026-05-07 16:04 | 49.72659 | 12.07554 | 34999 ft | 431 kts | 162° |
| 2026-05-07 16:05 | 49.67090 | 12.10840 | 35002 ft | 432 kts | 160° |
| 2026-05-07 16:05 | 49.61572 | 12.14466 | 35004 ft | 431 kts | 159° |
| 2026-05-07 16:06 | 49.56050 | 12.18112 | 34997 ft | 431 kts | 159° |
| 2026-05-07 16:06 | 49.50539 | 12.21699 | 35014 ft | 430 kts | 160° |
| 2026-05-07 16:07 | 49.45014 | 12.25258 | 35003 ft | 430 kts | 160° |
| 2026-05-07 16:07 | 49.39530 | 12.28778 | 35011 ft | 430 kts | 160° |
| 2026-05-07 16:08 | 49.34012 | 12.32306 | 35015 ft | 429 kts | 160° |
| 2026-05-07 16:08 | 49.28505 | 12.35824 | 35015 ft | 429 kts | 160° |
| 2026-05-07 16:09 | 49.22991 | 12.39336 | 35015 ft | 429 kts | 160° |
| 2026-05-07 16:09 | 49.17485 | 12.42835 | 35020 ft | 428 kts | 160° |
| 2026-05-07 16:10 | 49.11981 | 12.46323 | 35020 ft | 428 kts | 161° |
| 2026-05-07 16:10 | 49.06514 | 12.49780 | 35021 ft | 428 kts | 161° |
| 2026-05-07 16:11 | 49.01018 | 12.53250 | 35019 ft | 427 kts | 161° |
| 2026-05-07 16:11 | 48.95521 | 12.56709 | 35019 ft | 428 kts | 161° |
| 2026-05-07 16:12 | 48.90017 | 12.60164 | 35013 ft | 428 kts | 161° |
| 2026-05-07 16:12 | 48.84504 | 12.63617 | 35019 ft | 428 kts | 161° |
| 2026-05-07 16:13 | 48.79005 | 12.67054 | 35016 ft | 428 kts | 161° |
| 2026-05-07 16:13 | 48.73497 | 12.70487 | 35018 ft | 428 kts | 161° |
| 2026-05-07 16:14 | 48.68035 | 12.73884 | 35014 ft | 428 kts | 161° |
| 2026-05-07 16:14 | 48.62530 | 12.77300 | 35020 ft | 427 kts | 162° |
| 2026-05-07 16:15 | 48.57030 | 12.80707 | 35018 ft | 427 kts | 162° |
| 2026-05-07 16:15 | 48.51531 | 12.84104 | 35020 ft | 427 kts | 162° |
| 2026-05-07 16:16 | 48.46024 | 12.87496 | 35017 ft | 427 kts | 162° |
| 2026-05-07 16:16 | 48.40519 | 12.90879 | 35013 ft | 427 kts | 162° |
| 2026-05-07 16:17 | 48.35062 | 12.94227 | 35020 ft | 427 kts | 162° |
| 2026-05-07 16:17 | 48.29568 | 12.97589 | 35023 ft | 426 kts | 162° |
| 2026-05-07 16:18 | 48.24075 | 13.00943 | 35023 ft | 426 kts | 162° |
| 2026-05-07 16:18 | 48.18686 | 13.04667 | 35018 ft | 428 kts | 158° |
| 2026-05-07 16:19 | 48.13375 | 13.08717 | 35019 ft | 428 kts | 157° |
| 2026-05-07 16:19 | 48.08106 | 13.12738 | 35016 ft | 428 kts | 158° |
| 2026-05-07 16:20 | 48.02797 | 13.16739 | 35014 ft | 427 kts | 158° |
| 2026-05-07 16:20 | 47.97486 | 13.20704 | 35019 ft | 426 kts | 158° |
| 2026-05-07 16:21 | 47.92182 | 13.24650 | 35013 ft | 426 kts | 159° |
| 2026-05-07 16:21 | 47.86877 | 13.28587 | 35015 ft | 426 kts | 159° |
| 2026-05-07 16:22 | 47.81602 | 13.32492 | 35018 ft | 426 kts | 159° |
| 2026-05-07 16:22 | 47.76291 | 13.36416 | 35021 ft | 426 kts | 159° |
| 2026-05-07 16:23 | 47.70978 | 13.40332 | 35019 ft | 426 kts | 159° |
| 2026-05-07 16:23 | 47.65663 | 13.44240 | 35024 ft | 426 kts | 159° |
| 2026-05-07 16:24 | 47.60383 | 13.48116 | 35024 ft | 426 kts | 159° |
| 2026-05-07 16:24 | 47.55059 | 13.52016 | 35014 ft | 426 kts | 160° |
| 2026-05-07 16:25 | 47.49741 | 13.55902 | 35028 ft | 427 kts | 160° |
| 2026-05-07 16:25 | 47.44409 | 13.59787 | 35014 ft | 428 kts | 160° |
| 2026-05-07 16:26 | 47.39111 | 13.63638 | 35016 ft | 426 kts | 160° |
| 2026-05-07 16:26 | 47.33800 | 13.67493 | 35023 ft | 424 kts | 160° |
| 2026-05-07 16:27 | 47.28542 | 13.71301 | 34962 ft | 418 kts | 160° |
| 2026-05-07 16:27 | 47.23336 | 13.75061 | 35000 ft | 424 kts | 160° |
| 2026-05-07 16:28 | 47.17975 | 13.78916 | 34976 ft | 432 kts | 160° |
| 2026-05-07 16:28 | 47.12572 | 13.82802 | 34982 ft | 433 kts | 160° |
| 2026-05-07 16:29 | 47.07162 | 13.86688 | 34979 ft | 433 kts | 160° |
| 2026-05-07 16:29 | 47.01754 | 13.90563 | 34968 ft | 431 kts | 160° |
| 2026-05-07 16:30 | 46.96403 | 13.94387 | 34970 ft | 431 kts | 161° |
| 2026-05-07 16:30 | 46.91026 | 13.98219 | 34967 ft | 429 kts | 161° |
| 2026-05-07 16:31 | 46.85668 | 14.02029 | 34961 ft | 427 kts | 161° |
| 2026-05-07 16:31 | 46.80380 | 14.05781 | 34952 ft | 425 kts | 161° |
| 2026-05-07 16:32 | 46.75081 | 14.09532 | 34958 ft | 422 kts | 161° |
| 2026-05-07 16:32 | 46.69802 | 14.13260 | 34940 ft | 421 kts | 162° |
| 2026-05-07 16:33 | 46.64537 | 14.16970 | 34942 ft | 420 kts | 162° |
| 2026-05-07 16:33 | 46.59276 | 14.20669 | 34934 ft | 420 kts | 162° |
| 2026-05-07 16:34 | 46.54048 | 14.24334 | 34949 ft | 420 kts | 162° |
| 2026-05-07 16:34 | 46.48772 | 14.28028 | 34934 ft | 421 kts | 162° |
| 2026-05-07 16:35 | 46.43492 | 14.31717 | 34945 ft | 422 kts | 162° |
| 2026-05-07 16:35 | 46.38189 | 14.35415 | 34963 ft | 423 kts | 162° |
| 2026-05-07 16:36 | 46.32905 | 14.39090 | 34979 ft | 426 kts | 162° |
| 2026-05-07 16:36 | 46.27538 | 14.42816 | 34973 ft | 428 kts | 162° |
| 2026-05-07 16:37 | 46.22162 | 14.46539 | 34961 ft | 430 kts | 162° |
| 2026-05-07 16:37 | 46.16777 | 14.50266 | 34964 ft | 429 kts | 162° |
| 2026-05-07 16:38 | 46.11421 | 14.53959 | 34962 ft | 429 kts | 162° |
| 2026-05-07 16:38 | 46.06044 | 14.57660 | 34971 ft | 428 kts | 162° |
| 2026-05-07 16:39 | 46.00687 | 14.61337 | 34965 ft | 426 kts | 162° |
| 2026-05-07 16:39 | 45.95350 | 14.64990 | 34974 ft | 425 kts | 162° |
| 2026-05-07 16:40 | 45.90013 | 14.68643 | 34962 ft | 424 kts | 162° |
| 2026-05-07 16:40 | 45.84736 | 14.72245 | 34987 ft | 423 kts | 162° |
| 2026-05-07 16:41 | 45.79405 | 14.75872 | 34982 ft | 425 kts | 162° |
| 2026-05-07 16:41 | 45.74056 | 14.79507 | 34960 ft | 424 kts | 162° |
| 2026-05-07 16:42 | 45.68723 | 14.83126 | 34985 ft | 426 kts | 162° |
| 2026-05-07 16:42 | 45.63364 | 14.86750 | 34991 ft | 427 kts | 162° |
| 2026-05-07 16:43 | 45.58021 | 14.90354 | 34988 ft | 428 kts | 162° |
| 2026-05-07 16:43 | 45.52634 | 14.93982 | 35006 ft | 429 kts | 162° |
| 2026-05-07 16:44 | 45.47231 | 14.97614 | 35001 ft | 430 kts | 162° |
| 2026-05-07 16:44 | 45.41856 | 15.01220 | 35006 ft | 430 kts | 162° |
| 2026-05-07 16:45 | 45.36448 | 15.04840 | 35003 ft | 430 kts | 162° |
| 2026-05-07 16:45 | 45.31061 | 15.08443 | 34735 ft | 423 kts | 162° |
| 2026-05-07 16:45 | 45.28426 | 15.10208 | 34464 ft | 414 kts | 162° |
| 2026-05-07 16:46 | 45.25827 | 15.11944 | 34059 ft | 411 kts | 163° |
| 2026-05-07 16:46 | 45.23254 | 15.13658 | 33682 ft | 407 kts | 163° |
| 2026-05-07 16:46 | 45.20705 | 15.15352 | 33303 ft | 403 kts | 163° |
| 2026-05-07 16:46 | 45.18205 | 15.17012 | 32931 ft | 400 kts | 163° |
| 2026-05-07 16:47 | 45.15695 | 15.18676 | 32541 ft | 397 kts | 163° |
| 2026-05-07 16:47 | 45.13206 | 15.20326 | 32165 ft | 394 kts | 162° |
| 2026-05-07 16:47 | 45.10736 | 15.21962 | 31782 ft | 390 kts | 163° |
| 2026-05-07 16:47 | 45.08289 | 15.23580 | 31413 ft | 386 kts | 163° |
| 2026-05-07 16:48 | 45.05864 | 15.25182 | 31044 ft | 383 kts | 163° |
| 2026-05-07 16:48 | 45.03457 | 15.26771 | 30698 ft | 380 kts | 163° |
| 2026-05-07 16:48 | 45.01070 | 15.28344 | 30324 ft | 378 kts | 163° |
| 2026-05-07 16:48 | 44.98697 | 15.29907 | 29959 ft | 375 kts | 162° |
| 2026-05-07 16:49 | 44.96371 | 15.31440 | 29604 ft | 371 kts | 163° |
| 2026-05-07 16:49 | 44.94041 | 15.32974 | 29234 ft | 369 kts | 162° |
| 2026-05-07 16:49 | 44.91724 | 15.34497 | 28854 ft | 366 kts | 162° |
| 2026-05-07 16:49 | 44.89428 | 15.36005 | 28484 ft | 362 kts | 162° |
| 2026-05-07 16:50 | 44.87151 | 15.37501 | 28116 ft | 360 kts | 162° |
| 2026-05-07 16:50 | 44.84888 | 15.38985 | 27763 ft | 357 kts | 162° |
| 2026-05-07 16:50 | 44.82640 | 15.40456 | 27394 ft | 355 kts | 162° |
| 2026-05-07 16:50 | 44.80405 | 15.41918 | 27037 ft | 353 kts | 162° |
| 2026-05-07 16:51 | 44.78184 | 15.43369 | 26672 ft | 351 kts | 162° |
| 2026-05-07 16:51 | 44.75975 | 15.44812 | 26315 ft | 349 kts | 162° |
| 2026-05-07 16:51 | 44.73808 | 15.46225 | 25966 ft | 347 kts | 162° |
| 2026-05-07 16:51 | 44.71624 | 15.47650 | 25609 ft | 345 kts | 162° |
| 2026-05-07 16:52 | 44.69456 | 15.49064 | 25258 ft | 343 kts | 162° |
| 2026-05-07 16:52 | 44.67294 | 15.50471 | 24899 ft | 341 kts | 162° |
| 2026-05-07 16:52 | 44.65152 | 15.51865 | 24559 ft | 339 kts | 162° |
| 2026-05-07 16:52 | 44.63019 | 15.53252 | 24205 ft | 337 kts | 162° |
| 2026-05-07 16:53 | 44.60903 | 15.54626 | 23865 ft | 334 kts | 162° |
| 2026-05-07 16:53 | 44.58801 | 15.55991 | 23511 ft | 332 kts | 162° |
| 2026-05-07 16:53 | 44.56735 | 15.57331 | 23189 ft | 330 kts | 162° |
| 2026-05-07 16:53 | 44.54660 | 15.58676 | 22839 ft | 328 kts | 162° |
| 2026-05-07 16:54 | 44.52592 | 15.60015 | 22498 ft | 326 kts | 162° |
| 2026-05-07 16:54 | 44.50540 | 15.61343 | 22159 ft | 324 kts | 162° |
| 2026-05-07 16:54 | 44.48496 | 15.62663 | 21827 ft | 323 kts | 162° |
| 2026-05-07 16:54 | 44.46461 | 15.63977 | 21489 ft | 322 kts | 161° |
| 2026-05-07 16:55 | 44.44430 | 15.65288 | 21148 ft | 320 kts | 162° |
| 2026-05-07 16:55 | 44.42413 | 15.66590 | 20825 ft | 319 kts | 161° |
| 2026-05-07 16:55 | 44.40403 | 15.67889 | 20489 ft | 317 kts | 161° |
| 2026-05-07 16:55 | 44.38432 | 15.69158 | 20162 ft | 316 kts | 161° |
| 2026-05-07 16:56 | 44.36444 | 15.70436 | 19831 ft | 314 kts | 161° |
| 2026-05-07 16:56 | 44.34464 | 15.71709 | 19514 ft | 312 kts | 161° |
| 2026-05-07 16:56 | 44.30542 | 15.74228 | 18774 ft | 310 kts | 161° |
| 2026-05-07 16:57 | 44.28593 | 15.75480 | 18534 ft | 305 kts | 161° |
| 2026-05-07 16:57 | 44.26655 | 15.76723 | 18212 ft | 307 kts | 161° |
| 2026-05-07 16:57 | 44.24709 | 15.77968 | 17898 ft | 310 kts | 161° |
| 2026-05-07 16:57 | 44.22732 | 15.79232 | 17576 ft | 316 kts | 161° |
| 2026-05-07 16:58 | 44.20746 | 15.80501 | 17249 ft | 320 kts | 161° |
| 2026-05-07 16:58 | 44.18721 | 15.81798 | 16903 ft | 320 kts | 161° |
| 2026-05-07 16:58 | 44.16701 | 15.83090 | 16560 ft | 319 kts | 160° |
| 2026-05-07 16:58 | 44.14691 | 15.84375 | 16217 ft | 317 kts | 160° |
| 2026-05-07 16:59 | 44.12699 | 15.85661 | 15869 ft | 316 kts | 159° |
| 2026-05-07 16:59 | 44.10737 | 15.87039 | 15505 ft | 316 kts | 158° |
| 2026-05-07 16:59 | 44.08793 | 15.88451 | 15137 ft | 315 kts | 157° |
| 2026-05-07 16:59 | 44.06858 | 15.89861 | 14768 ft | 313 kts | 157° |
| 2026-05-07 17:00 | 44.04951 | 15.91245 | 14420 ft | 312 kts | 156° |
| 2026-05-07 17:00 | 44.03025 | 15.92636 | 14051 ft | 311 kts | 156° |
| 2026-05-07 17:00 | 44.01109 | 15.94015 | 13694 ft | 310 kts | 156° |
| 2026-05-07 17:00 | 43.99192 | 15.95391 | 13334 ft | 309 kts | 156° |
| 2026-05-07 17:01 | 43.97280 | 15.96758 | 12974 ft | 309 kts | 156° |
| 2026-05-07 17:01 | 43.95375 | 15.98121 | 12615 ft | 308 kts | 156° |
| 2026-05-07 17:01 | 43.93479 | 15.99477 | 12266 ft | 306 kts | 156° |
| 2026-05-07 17:01 | 43.91591 | 16.00826 | 11911 ft | 305 kts | 155° |
| 2026-05-07 17:02 | 43.89703 | 16.02171 | 11556 ft | 304 kts | 156° |
| 2026-05-07 17:02 | 43.87825 | 16.03476 | 11197 ft | 301 kts | 161° |
| 2026-05-07 17:02 | 43.85835 | 16.03981 | 10871 ft | 292 kts | 183° |
| 2026-05-07 17:02 | 43.83838 | 16.03657 | 10567 ft | 287 kts | 192° |
| 2026-05-07 17:03 | 43.81883 | 16.03111 | 10261 ft | 285 kts | 193° |
| 2026-05-07 17:03 | 43.79944 | 16.02562 | 9935 ft | 284 kts | 193° |
| 2026-05-07 17:03 | 43.78049 | 16.02041 | 9924 ft | 271 kts | 193° |
| 2026-05-07 17:03 | 43.76190 | 16.01537 | 9407 ft | 277 kts | 192° |
| 2026-05-07 17:04 | 43.74299 | 16.01035 | 9038 ft | 277 kts | 192° |
| 2026-05-07 17:04 | 43.72412 | 16.00539 | 8729 ft | 275 kts | 192° |
| 2026-05-07 17:04 | 43.70568 | 16.00058 | 8423 ft | 273 kts | 191° |
| 2026-05-07 17:04 | 43.68708 | 15.99574 | 8127 ft | 271 kts | 191° |
| 2026-05-07 17:05 | 43.66861 | 15.99092 | 7923 ft | 266 kts | 191° |
| 2026-05-07 17:05 | 43.65091 | 15.98628 | 7918 ft | 254 kts | 191° |
| 2026-05-07 17:05 | 43.63376 | 15.98183 | 7918 ft | 249 kts | 191° |
| 2026-05-07 17:05 | 43.61663 | 15.97737 | 7916 ft | 254 kts | 191° |
| 2026-05-07 17:06 | 43.59916 | 15.97280 | 7917 ft | 256 kts | 191° |
| 2026-05-07 17:06 | 43.58169 | 15.96827 | 7918 ft | 256 kts | 191° |
| 2026-05-07 17:06 | 43.56408 | 15.96370 | 7922 ft | 258 kts | 191° |
| 2026-05-07 17:06 | 43.54671 | 15.95919 | 7917 ft | 257 kts | 191° |
| 2026-05-07 17:07 | 43.52914 | 15.95462 | 7920 ft | 257 kts | 191° |
| 2026-05-07 17:07 | 43.51156 | 15.95007 | 7915 ft | 258 kts | 191° |
| 2026-05-07 17:07 | 43.49401 | 15.94483 | 7909 ft | 258 kts | 200° |
| 2026-05-07 17:07 | 43.47895 | 15.93172 | 7886 ft | 256 kts | 220° |
| 2026-05-07 17:08 | 43.46630 | 15.91459 | 7850 ft | 255 kts | 225° |
| 2026-05-07 17:08 | 43.45410 | 15.89685 | 7657 ft | 254 kts | 225° |
| 2026-05-07 17:08 | 43.44192 | 15.87919 | 7289 ft | 256 kts | 225° |
| 2026-05-07 17:08 | 43.42952 | 15.86146 | 6941 ft | 258 kts | 224° |
| 2026-05-07 17:09 | 43.41719 | 15.84401 | 6670 ft | 257 kts | 224° |
| 2026-05-07 17:09 | 43.40478 | 15.82651 | 6397 ft | 256 kts | 224° |
| 2026-05-07 17:09 | 43.39238 | 15.80903 | 6094 ft | 255 kts | 224° |
| 2026-05-07 17:09 | 43.37996 | 15.79157 | 5794 ft | 255 kts | 224° |
| 2026-05-07 17:10 | 43.36756 | 15.77415 | 5517 ft | 254 kts | 224° |
| 2026-05-07 17:10 | 43.35525 | 15.75685 | 5259 ft | 252 kts | 224° |
| 2026-05-07 17:10 | 43.34312 | 15.73983 | 4883 ft | 248 kts | 224° |
| 2026-05-07 17:10 | 43.33033 | 15.72388 | 4340 ft | 249 kts | 209° |
| 2026-05-07 17:11 | 43.31415 | 15.71792 | 4130 ft | 248 kts | 179° |
| 2026-05-07 17:11 | 43.29745 | 15.72319 | 4031 ft | 248 kts | 154° |
| 2026-05-07 17:11 | 43.28361 | 15.73704 | 3926 ft | 247 kts | 138° |
| 2026-05-07 17:11 | 43.27133 | 15.75351 | 3804 ft | 247 kts | 136° |
| 2026-05-07 17:12 | 43.25924 | 15.77016 | 3676 ft | 246 kts | 136° |
| 2026-05-07 17:12 | 43.24815 | 15.78790 | 3525 ft | 248 kts | 119° |
| 2026-05-07 17:12 | 43.24426 | 15.81083 | 3406 ft | 252 kts | 90° |
| 2026-05-07 17:12 | 43.24892 | 15.83400 | 3280 ft | 256 kts | 63° |
| 2026-05-07 17:13 | 43.25999 | 15.85318 | 3177 ft | 258 kts | 48° |
| 2026-05-07 17:13 | 43.27268 | 15.87059 | 3053 ft | 257 kts | 46° |
| 2026-05-07 17:13 | 43.28524 | 15.88761 | 2997 ft | 258 kts | 47° |
| 2026-05-07 17:13 | 43.29786 | 15.90496 | 2992 ft | 256 kts | 47° |
| 2026-05-07 17:14 | 43.31038 | 15.92231 | 2992 ft | 257 kts | 47° |
| 2026-05-07 17:14 | 43.32291 | 15.93976 | 2997 ft | 256 kts | 47° |
| 2026-05-07 17:14 | 43.33543 | 15.95723 | 2995 ft | 256 kts | 47° |
| 2026-05-07 17:14 | 43.34788 | 15.97467 | 2995 ft | 256 kts | 47° |
| 2026-05-07 17:15 | 43.36034 | 15.99210 | 2998 ft | 256 kts | 47° |
| 2026-05-07 17:15 | 43.37281 | 16.00955 | 2996 ft | 256 kts | 47° |
| 2026-05-07 17:15 | 43.38509 | 16.02677 | 2998 ft | 255 kts | 47° |
| 2026-05-07 17:15 | 43.39737 | 16.04429 | 2993 ft | 255 kts | 49° |
| 2026-05-07 17:16 | 43.40871 | 16.06306 | 2996 ft | 255 kts | 54° |
| 2026-05-07 17:16 | 43.41934 | 16.08265 | 3010 ft | 255 kts | 55° |
| 2026-05-07 17:16 | 43.42996 | 16.10200 | 3059 ft | 251 kts | 55° |
| 2026-05-07 17:16 | 43.44040 | 16.12135 | 3118 ft | 254 kts | 56° |
| 2026-05-07 17:17 | 43.45098 | 16.14108 | 3137 ft | 257 kts | 55° |
| 2026-05-07 17:17 | 43.46159 | 16.16078 | 3112 ft | 257 kts | 55° |
| 2026-05-07 17:17 | 43.47236 | 16.18024 | 2968 ft | 253 kts | 54° |
| 2026-05-07 17:17 | 43.48315 | 16.19929 | 2565 ft | 251 kts | 52° |
| 2026-05-07 17:18 | 43.49393 | 16.21763 | 2158 ft | 248 kts | 51° |
| 2026-05-07 17:18 | 43.50467 | 16.23641 | 1278 ft | 248 kts | 55° |
| 2026-05-07 17:18 | 43.51439 | 16.25508 | 767 ft | 233 kts | 54° |
| 2026-05-07 17:18 | 43.52404 | 16.27148 | 421 ft | 209 kts | 51° |
| 2026-05-07 17:19 | 43.53264 | 16.28662 | 104 ft | 191 kts | 54° |
| 2026-05-07 17:19 | 43.53998 | 16.29976 | 74 ft | 140 kts | 52° |
| 2026-05-07 17:19 | 43.54290 | 16.30489 | 54 ft | 32 kts | 50° |
| 2026-05-07 17:19 | 43.54336 | 16.30571 | 54 ft | 1 kts | 107° |
| 2026-05-07 17:20 | 43.54320 | 16.30573 | 58 ft | 6 kts | 213° |
| 2026-05-07 17:20 | 43.54261 | 16.30463 | 60 ft | 18 kts | 234° |
| 2026-05-07 17:20 | 43.54183 | 16.30317 | 68 ft | 21 kts | 232° |
| 2026-05-07 17:20 | 43.54091 | 16.30164 | 73 ft | 20 kts | 223° |
| 2026-05-07 17:21 | 43.53965 | 16.30081 | 65 ft | 21 kts | 197° |
| 2026-05-07 17:21 | 43.53875 | 16.30005 | 67 ft | 15 kts | 232° |
| 2026-05-07 17:21 | 43.53816 | 16.29896 | 65 ft | 14 kts | 233° |
| 2026-05-07 17:21 | 43.53766 | 16.29807 | 61 ft | 7 kts | 227° |
| 2026-05-07 17:22 | 43.53735 | 16.29841 | 66 ft | 7 kts | 111° |
| 2026-05-07 17:22 | 43.53728 | 16.29869 | 67 ft | 0 kts | 111° |